createdAt,value
2019-02-08T00:01:26.335Z,100760.70
2019-02-08T00:03:55.602Z,100763.37
2019-02-08T00:06:24.750Z,100771.61
2019-02-08T00:08:53.929Z,100765.00
2019-02-08T00:11:23.199Z,100764.23
2019-02-08T00:13:52.373Z,100762.23
2019-02-08T00:16:21.562Z,100764.06
2019-02-08T00:18:50.727Z,100764.20
2019-02-08T00:21:19.916Z,100767.28
2019-02-08T00:23:49.120Z,100765.77
2019-02-08T00:26:18.308Z,100764.09
2019-02-08T00:28:47.558Z,100760.02
2019-02-08T00:31:16.772Z,100766.13
2019-02-08T00:33:46.156Z,100772.38
2019-02-08T00:36:15.324Z,100766.20
2019-02-08T00:38:44.507Z,100763.99
2019-02-08T00:41:13.685Z,100762.59
2019-02-08T00:43:42.857Z,100759.33
2019-02-08T00:46:11.997Z,100757.64
2019-02-08T00:48:41.443Z,100754.73
2019-02-08T00:51:10.613Z,100751.30
2019-02-08T00:53:39.787Z,100760.48
2019-02-08T00:56:09.078Z,100758.82
2019-02-08T00:58:38.217Z,100752.84
2019-02-08T01:01:07.469Z,100743.61
2019-02-08T01:03:36.645Z,100749.88
2019-02-08T01:06:06.343Z,100746.82
2019-02-08T01:08:35.559Z,100759.89
2019-02-08T01:11:04.733Z,100757.98
2019-02-08T01:13:34.202Z,100763.95
2019-02-08T01:16:03.452Z,100759.28
2019-02-08T01:18:32.832Z,100762.19
2019-02-08T01:21:02.580Z,100764.72
2019-02-08T01:23:31.741Z,100771.67
2019-02-08T01:26:00.933Z,100766.93
2019-02-08T01:28:30.194Z,100768.69
2019-02-08T01:30:59.357Z,100771.05
2019-02-08T01:33:28.553Z,100765.01
2019-02-08T01:35:57.711Z,100765.70
2019-02-08T01:38:26.992Z,100761.50
2019-02-08T01:40:56.156Z,100765.69
2019-02-08T01:43:25.331Z,100770.20
2019-02-08T01:45:54.533Z,100767.68
2019-02-08T01:48:23.879Z,100767.30
2019-02-08T01:50:53.021Z,100771.12
2019-02-08T01:53:22.167Z,100775.41
2019-02-08T01:55:51.359Z,100770.28
2019-02-08T01:58:20.734Z,100772.80
2019-02-08T02:00:49.915Z,100779.75
2019-02-08T02:03:19.076Z,100778.38
2019-02-08T02:05:48.244Z,100777.02
2019-02-08T02:08:17.406Z,100777.47
2019-02-08T02:10:46.729Z,100777.78
2019-02-08T02:13:15.921Z,100770.44
2019-02-08T02:15:45.318Z,100779.54
2019-02-08T02:18:15.023Z,100777.92
2019-02-08T02:20:44.363Z,100772.49
2019-02-08T02:23:15.368Z,100774.32
2019-02-08T02:25:44.739Z,100777.14
2019-02-08T02:28:13.987Z,100778.97
2019-02-08T02:30:43.232Z,100783.47
2019-02-08T02:33:13.259Z,100784.70
2019-02-08T02:35:42.686Z,100781.36
2019-02-08T02:38:12.144Z,100786.16
2019-02-08T02:40:41.500Z,100786.48
2019-02-08T02:43:10.754Z,100782.51
2019-02-08T02:45:40.792Z,100777.92
2019-02-08T02:48:14.134Z,100776.83
2019-02-08T02:50:43.375Z,100781.21
2019-02-08T02:53:12.612Z,100779.98
2019-02-08T02:55:41.990Z,100781.36
2019-02-08T02:58:11.161Z,100778.30
2019-02-08T03:00:47.907Z,100783.04
2019-02-08T03:03:17.893Z,100785.64
2019-02-08T03:05:47.383Z,100778.23
2019-02-08T03:08:17.585Z,100778.69
2019-02-08T03:10:48.733Z,100780.44
2019-02-08T03:13:17.909Z,100780.83
2019-02-08T03:15:47.054Z,100779.59
2019-02-08T03:18:16.234Z,100776.62
2019-02-08T03:20:45.375Z,100777.08
2019-02-08T03:23:14.559Z,100773.25
2019-02-08T03:25:43.839Z,100778.59
2019-02-08T03:28:13.035Z,100765.36
2019-02-08T03:31:00.293Z,100772.24
2019-02-08T03:33:30.010Z,100777.44
2019-02-08T03:35:59.234Z,100775.89
2019-02-08T03:38:28.390Z,100770.31
2019-02-08T03:40:57.712Z,100773.83
2019-02-08T03:43:26.894Z,100767.19
2019-02-08T03:45:56.018Z,100767.65
2019-02-08T03:48:25.220Z,100767.19
2019-02-08T03:50:54.396Z,100768.17
2019-02-08T03:53:23.645Z,100761.30
2019-02-08T03:55:58.260Z,100753.13
2019-02-08T03:58:23.821Z,100759.37
2019-02-08T04:00:57.586Z,100762.95
2019-02-08T04:03:26.779Z,100752.57
2019-02-08T04:05:56.124Z,100760.81
2019-02-08T04:08:25.596Z,100759.13
2019-02-08T04:10:54.957Z,100765.09
2019-02-08T04:13:24.239Z,100763.87
2019-02-08T04:15:53.601Z,100763.55
2019-02-08T04:18:22.742Z,100764.11
2019-02-08T04:20:51.934Z,100764.17
2019-02-08T04:23:21.109Z,100769.37
2019-02-08T04:25:50.258Z,100770.28
2019-02-08T04:28:19.422Z,100757.76
2019-02-08T04:30:48.575Z,100752.70
2019-02-08T04:33:17.754Z,100749.06
2019-02-08T04:35:46.899Z,100744.08
2019-02-08T04:38:16.069Z,100748.08
2019-02-08T04:40:45.217Z,100743.34
2019-02-08T04:43:14.462Z,100753.55
2019-02-08T04:45:43.858Z,100747.62
2019-02-08T04:48:13.004Z,100746.22
2019-02-08T04:50:42.142Z,100747.13
2019-02-08T04:53:11.335Z,100741.34
2019-02-08T04:55:40.495Z,100738.69
2019-02-08T04:58:09.676Z,100738.16
2019-02-08T05:00:38.977Z,100739.84
2019-02-08T05:03:08.118Z,100738.93
2019-02-08T05:05:37.311Z,100740.89
2019-02-08T05:08:06.470Z,100748.61
2019-02-08T05:10:35.739Z,100749.91
2019-02-08T05:13:05.334Z,100740.81
2019-02-08T05:15:34.663Z,100751.20
2019-02-08T05:18:03.844Z,100744.92
2019-02-08T05:20:33.104Z,100749.31
2019-02-08T05:23:02.551Z,100745.63
2019-02-08T05:25:31.809Z,100751.34
2019-02-08T05:28:02.488Z,100747.98
2019-02-08T05:30:33.680Z,100743.41
2019-02-08T05:33:03.341Z,100741.41
2019-02-08T05:35:32.643Z,100739.41
2019-02-08T05:38:02.853Z,100735.59
2019-02-08T05:40:32.414Z,100729.03
2019-02-08T05:43:01.687Z,100730.78
2019-02-08T05:45:30.922Z,100726.96
2019-02-08T05:48:00.167Z,100715.74
2019-02-08T05:50:29.377Z,100708.09
2019-02-08T05:52:58.775Z,100707.71
2019-02-08T05:55:29.663Z,100706.41
2019-02-08T05:57:59.301Z,100702.30
2019-02-08T06:00:43.382Z,100703.81
2019-02-08T06:03:12.558Z,100696.49
2019-02-08T06:05:43.133Z,100687.87
2019-02-08T06:08:12.314Z,100685.59
2019-02-08T06:10:41.513Z,100676.89
2019-02-08T06:13:10.907Z,100686.36
2019-02-08T06:15:40.174Z,100689.86
2019-02-08T06:18:10.686Z,100669.88
2019-02-08T06:20:40.798Z,100694.45
2019-02-08T06:23:10.044Z,100687.97
2019-02-08T06:25:43.601Z,100691.80
2019-02-08T06:28:13.050Z,100694.25
2019-02-08T06:30:42.350Z,100688.60
2019-02-08T06:33:11.491Z,100686.78
2019-02-08T06:35:40.685Z,100686.70
2019-02-08T06:38:10.044Z,100690.36
2019-02-08T06:40:43.960Z,100692.04
2019-02-08T06:43:13.209Z,100692.20
2019-02-08T06:45:42.715Z,100699.36
2019-02-08T06:48:13.213Z,100702.48
2019-02-08T06:50:42.360Z,100697.21
2019-02-08T06:53:11.695Z,100697.52
2019-02-08T06:55:40.837Z,100706.16
2019-02-08T06:58:31.282Z,100697.69
2019-02-08T07:01:18.018Z,100704.80
2019-02-08T07:03:57.478Z,100702.41
2019-02-08T07:06:42.508Z,100701.42
2019-02-08T07:09:22.691Z,100701.66
2019-02-08T07:12:19.727Z,100703.42
2019-02-08T07:15:02.261Z,100703.34
2019-02-08T07:17:54.578Z,100705.88
2019-02-08T07:20:54.489Z,100705.80
2019-02-08T07:23:42.594Z,100703.12
2019-02-08T07:26:33.674Z,100704.73
2019-02-08T07:29:20.425Z,100708.63
2019-02-08T07:32:23.778Z,100697.33
2019-02-08T07:35:10.828Z,100698.16
2019-02-08T07:37:54.092Z,100697.07
2019-02-08T07:40:42.218Z,100699.52
2019-02-08T07:43:38.240Z,100696.99
2019-02-08T07:46:30.823Z,100691.80
2019-02-08T07:49:21.787Z,100706.39
2019-02-08T07:52:19.028Z,100698.22
2019-02-08T07:55:00.635Z,100693.41
2019-02-08T07:57:48.751Z,100697.16
2019-02-08T08:00:37.360Z,100696.55
2019-02-08T08:03:24.383Z,100688.98
2019-02-08T08:06:17.297Z,100686.66
2019-02-08T08:09:04.258Z,100686.05
2019-02-08T08:11:47.953Z,100690.71
2019-02-08T08:14:39.459Z,100687.50
2019-02-08T08:17:26.688Z,100689.95
2019-02-08T08:20:02.685Z,100690.33
2019-02-08T08:22:41.972Z,100687.20
2019-02-08T08:25:33.997Z,100689.64
2019-02-08T08:28:19.435Z,100684.44
2019-02-08T08:31:06.937Z,100686.02
2019-02-08T08:33:45.481Z,100677.67
2019-02-08T08:36:31.261Z,100684.09
2019-02-08T08:39:30.537Z,100687.84
2019-02-08T08:42:33.593Z,100683.79
2019-02-08T08:45:50.919Z,100679.89
2019-02-08T08:48:47.172Z,100678.21
2019-02-08T08:51:52.193Z,100671.55
2019-02-08T08:54:56.756Z,100671.48
2019-02-08T08:58:02.837Z,100671.78
2019-02-08T09:01:05.458Z,100671.13
2019-02-08T09:04:14.505Z,100667.23
2019-02-08T09:07:30.823Z,100661.88
2019-02-08T09:11:05.425Z,100649.94
2019-02-08T09:14:11.413Z,100646.71
2019-02-08T09:17:20.183Z,100645.33
2019-02-08T09:20:39.309Z,100649.07
2019-02-08T09:23:35.109Z,100639.39
2019-02-08T09:26:46.784Z,100633.95
2019-02-08T09:30:06.300Z,100636.09
2019-02-08T09:33:16.254Z,100635.93
2019-02-08T09:36:21.507Z,100638.75
2019-02-08T09:39:26.859Z,100634.22
2019-02-08T09:42:39.177Z,100621.67
2019-02-08T09:45:44.318Z,100630.70
2019-02-08T09:48:55.474Z,100631.53
2019-02-08T09:52:05.875Z,100634.86
2019-02-08T09:55:10.603Z,100626.72
2019-02-08T09:58:05.211Z,100632.38
2019-02-08T10:01:11.024Z,100620.55
2019-02-08T10:04:16.024Z,100611.28
2019-02-08T10:07:12.382Z,100606.13
2019-02-08T10:10:38.156Z,100605.33
2019-02-08T10:13:48.401Z,100597.53
2019-02-08T10:16:53.601Z,100597.23
2019-02-08T10:20:09.835Z,100599.30
2019-02-08T10:23:21.504Z,100604.05
2019-02-08T10:26:36.582Z,100595.77
2019-02-08T10:29:54.600Z,100592.63
2019-02-08T10:33:26.338Z,100592.91
2019-02-08T10:36:31.745Z,100596.19
2019-02-08T10:39:37.776Z,100589.67
2019-02-08T10:42:44.796Z,100589.97
2019-02-08T10:45:55.859Z,100575.56
2019-02-08T10:49:13.967Z,100584.68
2019-02-08T10:52:20.700Z,100590.27
2019-02-08T10:55:12.808Z,100586.70
2019-02-08T10:58:19.378Z,100587.92
2019-02-08T11:01:33.207Z,100582.54
2019-02-08T11:04:39.587Z,100579.77
2019-02-08T11:07:44.350Z,100573.92
2019-02-08T11:11:00.828Z,100565.39
2019-02-08T11:13:56.534Z,100558.67
2019-02-08T11:17:02.628Z,100561.56
2019-02-08T11:19:30.154Z,100535.92
2019-02-08T11:21:59.310Z,100538.16
2019-02-08T11:24:28.718Z,100545.87
2019-02-08T11:26:59.852Z,100544.68
2019-02-08T11:29:29.211Z,100543.38
2019-02-08T11:31:58.355Z,100533.13
2019-02-08T11:34:27.575Z,100524.67
2019-02-08T11:36:56.795Z,100517.14
2019-02-08T11:39:26.178Z,100516.22
2019-02-08T11:41:55.289Z,100516.13
2019-02-08T11:44:24.711Z,100516.05
2019-02-08T11:46:54.046Z,100515.64
2019-02-08T11:49:23.197Z,100504.57
2019-02-08T11:51:52.382Z,100505.03
2019-02-08T11:54:21.779Z,100495.63
2019-02-08T11:56:51.042Z,100491.81
2019-02-08T11:59:20.209Z,100485.20
2019-02-08T12:01:50.876Z,100486.23
2019-02-08T12:04:20.566Z,100479.06
2019-02-08T12:06:49.812Z,100479.06
2019-02-08T12:09:19.229Z,100478.59
2019-02-08T12:11:48.418Z,100472.08
2019-02-08T12:14:17.562Z,100471.80
2019-02-08T12:16:46.755Z,100471.06
2019-02-08T12:19:15.889Z,100470.31
2019-02-08T12:21:45.167Z,100466.87
2019-02-08T12:24:14.330Z,100471.34
2019-02-08T12:26:43.454Z,100463.33
2019-02-08T12:29:12.639Z,100451.78
2019-02-08T12:31:41.783Z,100446.77
2019-02-08T12:34:10.980Z,100440.06
2019-02-08T12:36:40.389Z,100434.02
2019-02-08T12:39:13.020Z,100433.30
2019-02-08T12:41:42.452Z,100430.37
2019-02-08T12:44:12.317Z,100432.38
2019-02-08T12:46:41.472Z,100424.70
2019-02-08T12:49:10.666Z,100419.86
2019-02-08T12:51:39.861Z,100420.13
2019-02-08T12:54:09.032Z,100416.13
2019-02-08T12:56:45.201Z,100410.53
2019-02-08T12:59:09.092Z,100404.53
2019-02-08T13:01:38.288Z,100397.63
2019-02-08T13:04:07.730Z,100390.08
2019-02-08T13:06:36.891Z,100399.20
2019-02-08T13:09:10.516Z,100380.56
2019-02-08T13:11:39.663Z,100377.77
2019-02-08T13:14:08.890Z,100375.86
2019-02-08T13:16:38.057Z,100370.97
2019-02-08T13:19:07.202Z,100378.33
2019-02-08T13:21:36.384Z,100372.37
2019-02-08T13:24:05.889Z,100374.14
2019-02-08T13:26:35.037Z,100360.66
2019-02-08T13:29:04.520Z,100357.76
2019-02-08T13:31:33.733Z,100350.41
2019-02-08T13:34:03.668Z,100337.73
2019-02-08T13:36:32.941Z,100341.18
2019-02-08T13:39:02.834Z,100335.40
2019-02-08T13:41:31.981Z,100336.23
2019-02-08T13:44:01.133Z,100326.44
2019-02-08T13:46:30.417Z,100318.39
2019-02-08T13:48:59.579Z,100313.34
2019-02-08T13:51:28.841Z,100312.67
2019-02-08T13:53:58.027Z,100301.77
2019-02-08T13:56:27.184Z,100305.48
2019-02-08T13:58:56.312Z,100299.06
2019-02-08T14:01:25.502Z,100290.77
2019-02-08T14:03:54.672Z,100296.81
2019-02-08T14:06:23.874Z,100287.36
2019-02-08T14:08:53.079Z,100286.48
2019-02-08T14:11:22.241Z,100278.92
2019-02-08T14:13:51.515Z,100285.72
2019-02-08T14:16:20.824Z,100286.78
2019-02-08T14:18:50.000Z,100284.91
2019-02-08T14:21:19.164Z,100283.23
2019-02-08T14:23:48.358Z,100280.63
2019-02-08T14:26:17.622Z,100282.77
2019-02-08T14:28:46.775Z,100272.91
2019-02-08T14:31:15.964Z,100278.95
2019-02-08T14:33:45.200Z,100285.48
2019-02-08T14:36:14.497Z,100282.20
2019-02-08T14:38:43.816Z,100268.02
2019-02-08T14:41:13.141Z,100269.52
2019-02-08T14:43:42.453Z,100259.41
2019-02-08T14:46:11.737Z,100257.33
2019-02-08T14:48:40.934Z,100247.22
2019-02-08T14:51:10.377Z,100238.92
2019-02-08T14:53:39.997Z,100245.70
2019-02-08T14:56:09.148Z,100246.17
2019-02-08T14:58:38.371Z,100242.97
2019-02-08T15:01:07.625Z,100249.73
2019-02-08T15:03:36.900Z,100244.77
2019-02-08T15:06:06.110Z,100234.44
2019-02-08T15:08:35.244Z,100244.27
2019-02-08T15:11:04.453Z,100240.13
2019-02-08T15:13:33.746Z,100235.64
2019-02-08T15:16:02.941Z,100229.31
2019-02-08T15:18:32.268Z,100224.36
2019-02-08T15:21:01.452Z,100224.57
2019-02-08T15:23:30.685Z,100219.02
2019-02-08T15:25:59.901Z,100212.59
2019-02-08T15:28:29.168Z,100209.06
2019-02-08T15:30:58.369Z,100206.83
2019-02-08T15:33:27.560Z,100203.94
2019-02-08T15:35:56.723Z,100196.23
2019-02-08T15:38:26.003Z,100191.95
2019-02-08T15:40:56.573Z,100185.09
2019-02-08T15:43:26.703Z,100185.56
2019-02-08T15:45:58.685Z,100174.77
2019-02-08T15:48:28.072Z,100165.01
2019-02-08T15:50:58.285Z,100170.48
2019-02-08T15:53:27.495Z,100159.31
2019-02-08T15:56:03.163Z,100167.88
2019-02-08T15:58:32.373Z,100163.13
2019-02-08T16:01:01.567Z,100160.98
2019-02-08T16:03:30.984Z,100162.30
2019-02-08T16:06:00.297Z,100152.17
2019-02-08T16:08:29.546Z,100148.52
2019-02-08T16:10:58.787Z,100154.31
2019-02-08T16:13:28.040Z,100143.30
2019-02-08T16:15:57.246Z,100136.30
2019-02-08T16:18:26.540Z,100131.20
2019-02-08T16:20:57.223Z,100120.56
2019-02-08T16:23:26.444Z,100127.70
2019-02-08T16:25:55.649Z,100120.09
2019-02-08T16:28:24.815Z,100118.58
2019-02-08T16:30:53.989Z,100106.22
2019-02-08T16:33:23.288Z,100105.27
2019-02-08T16:35:52.556Z,100104.13
2019-02-08T16:38:21.769Z,100107.67
2019-02-08T16:40:51.130Z,100093.32
2019-02-08T16:43:20.336Z,100094.27
2019-02-08T16:45:49.570Z,100096.98
2019-02-08T16:48:19.799Z,100097.86
2019-02-08T16:50:49.073Z,100080.89
2019-02-08T16:53:18.326Z,100065.92
2019-02-08T16:55:47.661Z,100079.34
2019-02-08T16:58:16.892Z,100079.23
2019-02-08T17:00:46.287Z,100069.99
2019-02-08T17:03:15.930Z,100061.59
2019-02-08T17:05:45.469Z,100058.58
2019-02-08T17:08:14.701Z,100060.75
2019-02-08T17:10:43.885Z,100041.45
2019-02-08T17:13:13.149Z,100045.24
2019-02-08T17:15:42.340Z,100041.55
2019-02-08T17:18:11.580Z,100038.00
2019-02-08T17:20:42.971Z,100047.49
2019-02-08T17:23:12.451Z,100040.75
2019-02-08T17:25:41.705Z,100033.03
2019-02-08T17:28:11.969Z,100026.04
2019-02-08T17:30:41.375Z,100027.09
2019-02-08T17:33:11.359Z,100026.41
2019-02-08T17:35:40.857Z,100020.09
2019-02-08T17:38:10.220Z,100013.53
2019-02-08T17:40:41.299Z,100022.05
2019-02-08T17:43:10.705Z,100015.02
2019-02-08T17:45:39.897Z,100009.29
2019-02-08T17:48:11.697Z,100006.06
2019-02-08T17:50:40.984Z,100004.80
2019-02-08T17:53:10.345Z,100010.81
2019-02-08T17:55:39.542Z,100007.47
2019-02-08T17:58:08.868Z,99997.41
2019-02-08T18:00:46.196Z,100000.95
2019-02-08T18:03:15.300Z,99997.66
2019-02-08T18:05:44.566Z,99983.64
2019-02-08T18:08:13.972Z,99974.30
2019-02-08T18:10:44.223Z,99981.86
2019-02-08T18:13:14.288Z,99971.91
2019-02-08T18:15:43.538Z,99968.97
2019-02-08T18:18:17.940Z,99976.58
2019-02-08T18:20:49.347Z,99963.86
2019-02-08T18:23:18.639Z,99963.54
2019-02-08T18:25:47.969Z,99964.19
2019-02-08T18:28:17.192Z,99958.80
2019-02-08T18:30:46.358Z,99951.36
2019-02-08T18:33:15.615Z,99946.98
2019-02-08T18:35:44.925Z,99949.70
2019-02-08T18:38:14.076Z,99948.39
2019-02-08T18:40:43.276Z,99924.70
2019-02-08T18:43:12.503Z,99919.73
2019-02-08T18:45:41.643Z,99912.04
2019-02-08T18:48:11.016Z,99913.23
2019-02-08T18:50:42.658Z,99910.87
2019-02-08T18:53:12.326Z,99900.55
2019-02-08T18:55:41.539Z,99901.16
2019-02-08T18:58:18.431Z,99894.02
2019-02-08T19:00:44.145Z,99891.91
2019-02-08T19:03:13.337Z,99890.94
2019-02-08T19:05:42.795Z,99878.36
2019-02-08T19:08:12.521Z,99865.69
2019-02-08T19:10:41.972Z,99870.32
2019-02-08T19:13:12.500Z,99861.06
2019-02-08T19:15:41.778Z,99853.36
2019-02-08T19:18:11.225Z,99860.72
2019-02-08T19:20:40.523Z,99849.58
2019-02-08T19:23:10.839Z,99855.63
2019-02-08T19:25:41.672Z,99852.89
2019-02-08T19:28:12.495Z,99850.05
2019-02-08T19:30:42.124Z,99846.01
2019-02-08T19:33:13.922Z,99828.34
2019-02-08T19:35:43.340Z,99829.29
2019-02-08T19:38:12.726Z,99823.48
2019-02-08T19:40:46.600Z,99813.99
2019-02-08T19:43:15.998Z,99810.92
2019-02-08T19:45:47.449Z,99811.97
2019-02-08T19:48:20.777Z,99801.65
2019-02-08T19:50:50.268Z,99789.06
2019-02-08T19:53:20.508Z,99789.06
2019-02-08T19:55:49.948Z,99790.03
2019-02-08T19:58:19.193Z,99782.06
2019-02-08T20:00:48.675Z,99791.20
2019-02-08T20:03:18.078Z,99786.92
2019-02-08T20:05:47.307Z,99788.23
2019-02-08T20:08:16.788Z,99800.45
2019-02-08T20:10:47.926Z,99776.97
2019-02-08T20:13:17.245Z,99780.87
2019-02-08T20:15:46.789Z,99769.63
2019-02-08T20:18:16.276Z,99781.59
2019-02-08T20:20:45.664Z,99764.50
2019-02-08T20:23:16.834Z,99768.42
2019-02-08T20:25:46.494Z,99764.39
2019-02-08T20:28:18.196Z,99772.82
2019-02-08T20:30:49.552Z,99770.09
2019-02-08T20:33:18.822Z,99760.59
2019-02-08T20:35:48.052Z,99749.56
2019-02-08T20:38:17.569Z,99761.55
2019-02-08T20:40:49.267Z,99750.16
2019-02-08T20:43:18.692Z,99751.43
2019-02-08T20:45:48.981Z,99744.45
2019-02-08T20:48:22.811Z,99733.55
2019-02-08T20:50:52.391Z,99734.25
2019-02-08T20:53:22.783Z,99732.72
2019-02-08T20:55:53.792Z,99721.67
2019-02-08T20:58:23.452Z,99719.66
2019-02-08T21:00:54.910Z,99723.81
2019-02-08T21:03:24.629Z,99710.17
2019-02-08T21:05:54.397Z,99710.20
2019-02-08T21:08:23.893Z,99707.94
2019-02-08T21:10:53.582Z,99706.42
2019-02-08T21:13:23.139Z,99703.08
2019-02-08T21:15:53.294Z,99707.59
2019-02-08T21:18:24.049Z,99707.01
2019-02-08T21:20:53.336Z,99712.70
2019-02-08T21:23:23.144Z,99713.63
2019-02-08T21:25:52.691Z,99710.91
2019-02-08T21:28:21.977Z,99707.08
2019-02-08T21:30:51.239Z,99711.11
2019-02-08T21:33:20.642Z,99700.65
2019-02-08T21:35:49.941Z,99695.66
2019-02-08T21:38:21.806Z,99679.09
2019-02-08T21:40:51.836Z,99682.38
2019-02-08T21:43:21.193Z,99669.90
2019-02-08T21:45:50.652Z,99660.68
2019-02-08T21:48:20.137Z,99664.56
2019-02-08T21:50:49.342Z,99663.62
2019-02-08T21:53:19.051Z,99667.64
2019-02-08T21:55:48.544Z,99660.41
2019-02-08T21:58:17.812Z,99661.57
2019-02-08T22:00:47.351Z,99660.85
2019-02-08T22:03:16.759Z,99657.89
2019-02-08T22:05:59.008Z,99654.34
2019-02-08T22:08:28.541Z,99648.30
2019-02-08T22:10:57.918Z,99634.09
2019-02-08T22:13:27.175Z,99643.09
2019-02-08T22:15:56.407Z,99629.71
2019-02-08T22:18:25.967Z,99639.77
2019-02-08T22:20:57.620Z,99635.28
2019-02-08T22:23:26.910Z,99632.31
2019-02-08T22:25:56.427Z,99636.56
2019-02-08T22:28:25.695Z,99626.38
2019-02-08T22:30:54.892Z,99614.88
2019-02-08T22:33:24.122Z,99606.34
2019-02-08T22:35:53.306Z,99615.68
2019-02-08T22:38:22.572Z,99619.48
2019-02-08T22:40:51.902Z,99624.10
2019-02-08T22:43:21.059Z,99619.95
2019-02-08T22:45:50.205Z,99609.17
2019-02-08T22:48:19.388Z,99609.42
2019-02-08T22:50:48.554Z,99608.59
2019-02-08T22:53:17.801Z,99608.23
2019-02-08T22:55:46.991Z,99606.32
2019-02-08T22:58:16.186Z,99587.27
2019-02-08T23:01:24.427Z,99578.52
2019-02-08T23:03:55.012Z,99583.84
2019-02-08T23:06:24.375Z,99573.08
2019-02-08T23:08:53.732Z,99590.13
2019-02-08T23:11:23.133Z,99579.82
2019-02-08T23:13:52.372Z,99579.55
2019-02-08T23:16:21.992Z,99580.59
2019-02-08T23:18:51.135Z,99579.08
2019-02-08T23:21:20.494Z,99553.52
2019-02-08T23:23:49.666Z,99561.33
2019-02-08T23:26:18.827Z,99568.78
2019-02-08T23:28:47.971Z,99549.63
2019-02-08T23:31:17.163Z,99554.83
2019-02-08T23:33:46.318Z,99556.95
2019-02-08T23:36:15.635Z,99546.05
2019-02-08T23:38:44.844Z,99544.39
2019-02-08T23:41:14.068Z,99546.99
2019-02-08T23:43:43.246Z,99549.23
2019-02-08T23:46:12.501Z,99553.61
2019-02-08T23:48:41.758Z,99534.67
2019-02-08T23:51:11.057Z,99545.41
2019-02-08T23:53:40.265Z,99553.47
2019-02-08T23:56:09.416Z,99564.34
2019-02-08T23:58:38.567Z,99544.72
